Time,TemperatureF,DewpointF,PressureIn,WindDirection,WindDirectionDegrees,WindSpeedMPH,WindSpeedGustMPH,Humidity,HourlyPrecipIn,Conditions,Clouds,dailyrainin,SoftwareType,DateUTC
2015-07-07 00:00:00,67.4,65.3,29.88,ENE,68,0.0,0.0,93,0.05,,,0.00,Wunderground v.1.15,2015-07-07 05:00:00,
2015-07-07 00:10:00,67.4,65.6,29.89,NE,44,0.0,0.0,94,0.00,,,0.00,Wunderground v.1.15,2015-07-07 05:10:00,
2015-07-07 00:20:00,67.4,65.3,29.90,ENE,59,0.0,0.0,93,0.00,,,0.00,Wunderground v.1.15,2015-07-07 05:20:00,
2015-07-07 00:25:00,67.4,65.3,29.90,NNW,337,0.0,0.0,93,0.00,,,0.00,Wunderground v.1.15,2015-07-07 05:25:00,
2015-07-07 00:35:00,67.5,65.4,29.90,ENE,63,0.0,0.0,93,0.00,,,0.00,Wunderground v.1.15,2015-07-07 05:35:00,
2015-07-07 00:40:00,67.4,65.3,29.89,NE,46,0.0,0.0,93,0.00,,,0.00,Wunderground v.1.15,2015-07-07 05:40:00,
2015-07-07 00:50:00,67.4,65.3,29.90,North,5,0.0,0.0,93,0.00,,,0.00,Wunderground v.1.15,2015-07-07 05:50:00,
2015-07-07 00:55:00,67.4,65.3,29.89,North,360,0.0,0.0,93,0.00,,,0.00,Wunderground v.1.15,2015-07-07 05:55:00,
2015-07-07 01:00:00,67.6,65.2,29.89,NNE,26,0.0,0.0,92,0.00,,,0.00,Wunderground v.1.15,2015-07-07 06:00:00,
2015-07-07 01:10:00,67.5,65.1,29.90,North,360,0.0,0.0,92,0.00,,,0.00,Wunderground v.1.15,2015-07-07 06:10:00,
2015-07-07 01:20:00,67.6,65.2,29.90,North,350,0.0,0.0,92,0.00,,,0.00,Wunderground v.1.15,2015-07-07 06:20:00,
2015-07-07 01:30:00,67.7,65.3,29.90,NNW,327,0.0,0.0,92,0.00,,,0.00,Wunderground v.1.15,2015-07-07 06:30:00,
2015-07-07 01:40:00,67.8,65.4,29.90,North,9,0.0,0.0,92,0.00,,,0.00,Wunderground v.1.15,2015-07-07 06:40:00,
2015-07-07 01:45:00,67.7,65.3,29.90,ENE,61,0.0,0.0,92,0.00,,,0.00,Wunderground v.1.15,2015-07-07 06:45:00,
2015-07-07 01:55:00,67.6,65.2,29.90,NE,51,0.0,0.0,92,0.00,,,0.00,Wunderground v.1.15,2015-07-07 06:55:00,
2015-07-07 02:00:00,67.5,65.1,29.90,ENE,65,0.0,0.0,92,0.00,,,0.00,Wunderground v.1.15,2015-07-07 07:00:00,
2015-07-07 02:10:00,66.8,64.4,29.91,NNE,29,0.0,0.0,92,0.00,,,0.00,Wunderground v.1.15,2015-07-07 07:10:00,
2015-07-07 02:15:00,66.6,64.2,29.91,NE,43,0.0,0.0,92,0.00,,,0.00,Wunderground v.1.15,2015-07-07 07:15:00,
2015-07-07 02:25:00,66.5,64.1,29.91,NNE,20,0.0,0.0,92,0.00,,,0.00,Wunderground v.1.15,2015-07-07 07:25:00,
2015-07-07 02:30:00,66.4,64.0,29.91,NE,38,0.0,0.0,92,0.00,,,0.01,Wunderground v.1.15,2015-07-07 07:30:00,
2015-07-07 02:40:00,65.9,63.5,29.91,NE,46,0.0,0.0,92,0.11,,,0.03,Wunderground v.1.15,2015-07-07 07:40:00,
2015-07-07 02:45:00,65.6,63.2,29.91,NE,53,0.0,0.0,92,0.11,,,0.04,Wunderground v.1.15,2015-07-07 07:45:00,
2015-07-07 02:55:00,65.4,63.3,29.92,NE,51,0.0,0.0,93,0.09,,,0.05,Wunderground v.1.15,2015-07-07 07:55:00,
2015-07-07 03:00:00,65.2,63.1,29.92,NNE,20,0.0,0.0,93,0.05,,,0.06,Wunderground v.1.15,2015-07-07 08:00:00,
2015-07-07 03:10:00,65.0,62.9,29.92,NNE,16,0.0,0.0,93,0.05,,,0.06,Wunderground v.1.15,2015-07-07 08:10:00,
2015-07-07 03:15:00,64.9,62.8,29.92,NE,43,0.0,0.0,93,0.04,,,0.07,Wunderground v.1.15,2015-07-07 08:15:00,
2015-07-07 03:25:00,64.8,62.7,29.92,NE,41,0.0,0.0,93,0.09,,,0.08,Wunderground v.1.15,2015-07-07 08:25:00,
2015-07-07 03:30:00,64.8,62.7,29.92,NNW,346,0.0,0.0,93,0.06,,,0.08,Wunderground v.1.15,2015-07-07 08:30:00,
2015-07-07 03:40:00,64.8,62.7,29.92,NNE,25,0.0,0.0,93,0.05,,,0.09,Wunderground v.1.15,2015-07-07 08:40:00,
2015-07-07 03:45:00,64.8,62.7,29.92,NW,326,0.0,0.0,93,0.05,,,0.09,Wunderground v.1.15,2015-07-07 08:45:00,
2015-07-07 03:55:00,64.7,62.6,29.92,NNW,330,0.0,0.0,93,0.00,,,0.09,Wunderground v.1.15,2015-07-07 08:55:00,
2015-07-07 04:00:00,64.5,62.4,29.92,ENE,61,0.0,0.0,93,0.00,,,0.09,Wunderground v.1.15,2015-07-07 09:00:00,
2015-07-07 04:10:00,64.1,61.7,29.92,North,360,0.0,0.0,92,0.00,,,0.09,Wunderground v.1.15,2015-07-07 09:10:00,
2015-07-07 04:20:00,63.9,61.2,29.92,NE,38,0.0,0.0,91,0.00,,,0.09,Wunderground v.1.15,2015-07-07 09:20:00,
2015-07-07 04:30:00,63.9,61.2,29.93,NNE,31,0.0,0.0,91,0.00,,,0.09,Wunderground v.1.15,2015-07-07 09:30:00,
2015-07-07 04:35:00,63.9,61.2,29.92,NE,36,0.0,0.0,91,0.00,,,0.09,Wunderground v.1.15,2015-07-07 09:35:00,
2015-07-07 04:45:00,63.7,61.0,29.93,ENE,78,0.0,0.0,91,0.00,,,0.10,Wunderground v.1.15,2015-07-07 09:45:00,
2015-07-07 04:50:00,63.6,60.9,29.93,NNE,15,0.0,0.0,91,0.00,,,0.10,Wunderground v.1.15,2015-07-07 09:50:00,
2015-07-07 05:00:00,63.3,60.6,29.93,NE,49,0.0,0.0,91,0.00,,,0.10,Wunderground v.1.15,2015-07-07 10:00:00,
2015-07-07 05:05:00,63.2,60.5,29.94,NNE,33,0.0,0.0,91,0.00,,,0.10,Wunderground v.1.15,2015-07-07 10:05:00,
2015-07-07 05:15:00,63.1,60.7,29.93,ENE,77,0.0,0.0,92,0.00,,,0.10,Wunderground v.1.15,2015-07-07 10:15:00,
2015-07-07 05:35:00,63.0,60.6,29.93,ENE,62,0.0,0.0,92,0.00,,,0.10,Wunderground v.1.15,2015-07-07 10:35:00,
2015-07-07 05:45:00,63.0,60.6,29.93,East,90,0.0,0.0,92,0.00,,,0.10,Wunderground v.1.15,2015-07-07 10:45:00,
2015-07-07 05:55:00,63.0,60.6,29.94,ENE,59,0.0,0.0,92,0.00,,,0.10,Wunderground v.1.15,2015-07-07 10:55:00,
2015-07-07 06:00:00,63.0,60.6,29.94,ENE,57,0.0,0.0,92,0.00,,,0.10,Wunderground v.1.15,2015-07-07 11:00:00,
2015-07-07 06:10:00,63.0,60.6,29.94,NE,47,0.0,0.0,92,0.00,,,0.10,Wunderground v.1.15,2015-07-07 11:10:00,
2015-07-07 06:25:00,63.0,60.9,29.95,NE,42,0.0,0.0,93,0.00,,,0.10,Wunderground v.1.15,2015-07-07 11:25:00,
2015-07-07 06:35:00,63.0,60.9,29.95,NE,42,0.0,0.0,93,0.00,,,0.10,Wunderground v.1.15,2015-07-07 11:35:00,
2015-07-07 06:40:00,63.1,61.0,29.95,NE,42,0.0,0.0,93,0.00,,,0.10,Wunderground v.1.15,2015-07-07 11:40:00,
2015-07-07 06:50:00,63.3,61.2,29.95,NE,42,0.0,0.0,93,0.00,,,0.10,Wunderground v.1.15,2015-07-07 11:50:00,
2015-07-07 07:00:00,63.5,61.4,29.95,NE,43,0.0,0.0,93,0.00,,,0.10,Wunderground v.1.15,2015-07-07 12:00:00,
2015-07-07 07:10:00,63.9,61.8,29.96,ENE,57,0.0,0.0,93,0.00,,,0.10,Wunderground v.1.15,2015-07-07 12:10:00,
2015-07-07 07:15:00,64.0,61.9,29.96,NE,37,0.0,0.0,93,0.00,,,0.10,Wunderground v.1.15,2015-07-07 12:15:00,
2015-07-07 07:25:00,64.2,61.8,29.96,NE,53,0.0,0.0,92,0.00,,,0.10,Wunderground v.1.15,2015-07-07 12:25:00,
2015-07-07 07:30:00,64.3,61.9,29.96,NE,34,0.0,0.0,92,0.00,,,0.10,Wunderground v.1.15,2015-07-07 12:30:00,
2015-07-07 07:40:00,64.4,61.7,29.96,NNE,24,0.0,0.0,91,0.00,,,0.10,Wunderground v.1.15,2015-07-07 12:40:00,
2015-07-07 07:45:00,64.5,61.8,29.97,ENE,61,0.0,0.0,91,0.00,,,0.10,Wunderground v.1.15,2015-07-07 12:45:00,
2015-07-07 07:55:00,64.6,61.6,29.97,North,10,0.0,0.0,90,0.00,,,0.10,Wunderground v.1.15,2015-07-07 12:55:00,
2015-07-07 08:00:00,64.7,61.7,29.97,NNW,341,0.0,0.0,90,0.00,,,0.10,Wunderground v.1.15,2015-07-07 13:00:00,
2015-07-07 08:10:00,64.8,61.8,29.98,NNW,345,0.0,0.0,90,0.00,,,0.10,Wunderground v.1.15,2015-07-07 13:10:00,
2015-07-07 08:15:00,64.8,61.8,29.98,North,5,0.0,0.0,90,0.00,,,0.10,Wunderground v.1.15,2015-07-07 13:15:00,
2015-07-07 08:25:00,64.7,61.7,29.99,NNE,25,0.0,0.0,90,0.00,,,0.10,Wunderground v.1.15,2015-07-07 13:25:00,
2015-07-07 08:30:00,64.6,61.6,29.99,NNW,348,0.0,0.0,90,0.00,,,0.10,Wunderground v.1.15,2015-07-07 13:30:00,
2015-07-07 08:40:00,64.5,61.5,29.99,NE,56,0.0,0.0,90,0.00,,,0.10,Wunderground v.1.15,2015-07-07 13:40:00,
2015-07-07 08:50:00,64.8,61.8,29.99,NE,35,0.0,0.0,90,0.00,,,0.10,Wunderground v.1.15,2015-07-07 13:50:00,
2015-07-07 09:00:00,64.6,61.3,30.00,ENE,58,0.0,0.0,89,0.00,,,0.10,Wunderground v.1.15,2015-07-07 14:00:00,
2015-07-07 09:10:00,64.3,60.7,30.00,NE,54,0.0,0.0,88,0.00,,,0.10,Wunderground v.1.15,2015-07-07 14:10:00,
2015-07-07 09:15:00,64.3,60.3,30.00,ENE,60,0.0,0.0,87,0.00,,,0.10,Wunderground v.1.15,2015-07-07 14:15:00,
2015-07-07 09:25:00,64.5,60.2,30.00,NNW,336,0.0,0.0,86,0.00,,,0.10,Wunderground v.1.15,2015-07-07 14:25:00,
2015-07-07 09:30:00,64.6,60.3,30.00,NNE,27,0.0,0.0,86,0.00,,,0.10,Wunderground v.1.15,2015-07-07 14:30:00,
2015-07-07 09:40:00,65.0,60.7,30.00,NNE,22,0.0,0.0,86,0.00,,,0.10,Wunderground v.1.15,2015-07-07 14:40:00,
2015-07-07 09:45:00,65.2,60.9,30.01,North,360,0.0,0.0,86,0.00,,,0.10,Wunderground v.1.15,2015-07-07 14:45:00,
2015-07-07 09:55:00,65.2,60.6,30.00,North,360,0.0,0.0,85,0.00,,,0.10,Wunderground v.1.15,2015-07-07 14:55:00,
2015-07-07 10:01:00,65.2,60.6,30.01,ENE,57,0.0,0.0,85,0.00,,,0.10,Wunderground v.1.15,2015-07-07 15:01:00,
2015-07-07 10:10:00,65.2,60.2,30.01,North,360,0.0,0.0,84,0.00,,,0.10,Wunderground v.1.15,2015-07-07 15:10:00,
2015-07-07 10:20:00,65.0,59.7,30.01,North,360,0.0,0.0,83,0.00,,,0.10,Wunderground v.1.15,2015-07-07 15:20:00,
2015-07-07 10:25:00,64.9,59.6,30.01,NNE,15,0.0,0.0,83,0.00,,,0.10,Wunderground v.1.15,2015-07-07 15:25:00,
2015-07-07 10:35:00,64.6,59.0,30.01,NE,55,0.0,0.0,82,0.00,,,0.10,Wunderground v.1.15,2015-07-07 15:35:00,
2015-07-07 10:40:00,64.5,58.5,30.02,NNE,16,0.0,0.0,81,0.00,,,0.10,Wunderground v.1.15,2015-07-07 15:40:00,
2015-07-07 10:50:00,64.5,58.2,30.01,NE,36,0.0,0.0,80,0.00,,,0.10,Wunderground v.1.15,2015-07-07 15:50:00,
2015-07-07 10:55:00,64.5,58.2,30.01,NE,53,0.0,0.0,80,0.00,,,0.10,Wunderground v.1.15,2015-07-07 15:55:00,
2015-07-07 11:00:00,64.6,58.3,30.02,ENE,57,0.0,0.0,80,0.00,,,0.10,Wunderground v.1.15,2015-07-07 16:00:00,
2015-07-07 11:10:00,64.7,58.7,30.02,NNW,335,0.0,0.0,81,0.00,,,0.10,Wunderground v.1.15,2015-07-07 16:10:00,
2015-07-07 11:15:00,64.8,58.8,30.02,ENE,58,0.0,0.0,81,0.00,,,0.10,Wunderground v.1.15,2015-07-07 16:15:00,
2015-07-07 11:25:00,65.2,59.6,30.02,NNW,347,0.0,0.0,82,0.00,,,0.10,Wunderground v.1.15,2015-07-07 16:25:00,
2015-07-07 11:35:00,65.5,59.2,30.03,NNE,27,0.0,0.0,80,0.00,,,0.10,Wunderground v.1.15,2015-07-07 16:35:00,
2015-07-07 11:45:00,65.7,58.3,30.03,North,360,0.0,0.0,77,0.00,,,0.10,Wunderground v.1.15,2015-07-07 16:45:00,
2015-07-07 11:55:00,65.6,56.7,30.03,NNW,335,0.0,0.0,73,0.00,,,0.10,Wunderground v.1.15,2015-07-07 16:55:00,
2015-07-07 12:00:00,65.6,56.7,30.03,North,360,0.0,0.0,73,0.00,,,0.10,Wunderground v.1.15,2015-07-07 17:00:00,
2015-07-07 12:10:00,65.6,55.9,30.03,NNE,30,0.0,0.0,71,0.00,,,0.10,Wunderground v.1.15,2015-07-07 17:10:00,
2015-07-07 12:15:00,65.9,55.8,30.03,North,360,0.0,0.0,70,0.00,,,0.10,Wunderground v.1.15,2015-07-07 17:15:00,
2015-07-07 12:20:00,66.1,55.6,30.03,NE,51,0.0,0.0,69,0.00,,,0.10,Wunderground v.1.15,2015-07-07 17:20:00,
2015-07-07 12:30:00,66.4,55.9,30.03,NNW,338,0.0,0.0,69,0.00,,,0.10,Wunderground v.1.15,2015-07-07 17:30:00,
2015-07-07 12:40:00,66.4,54.3,30.03,ENE,57,0.0,0.0,65,0.00,,,0.11,Wunderground v.1.15,2015-07-07 17:40:00,
2015-07-07 12:50:00,66.4,53.8,30.03,North,5,0.0,0.0,64,0.00,,,0.11,Wunderground v.1.15,2015-07-07 17:50:00,
2015-07-07 13:00:00,66.1,54.0,30.03,ENE,63,0.0,0.0,65,0.00,,,0.11,Wunderground v.1.15,2015-07-07 18:00:00,
2015-07-07 13:10:00,65.9,52.9,30.03,ENE,59,0.0,0.0,63,0.00,,,0.11,Wunderground v.1.15,2015-07-07 18:10:00,
2015-07-07 13:20:00,66.3,54.6,30.03,North,351,0.0,0.0,66,0.00,,,0.11,Wunderground v.1.15,2015-07-07 18:20:00,
2015-07-07 13:35:00,66.7,54.6,30.02,NE,44,0.0,0.0,65,0.00,,,0.11,Wunderground v.1.15,2015-07-07 18:35:00,
2015-07-07 13:45:00,66.8,54.7,30.03,NNW,346,0.0,0.0,65,0.00,,,0.11,Wunderground v.1.15,2015-07-07 18:45:00,
2015-07-07 13:55:00,67.0,54.0,30.02,NE,35,0.0,0.0,63,0.00,,,0.11,Wunderground v.1.15,2015-07-07 18:55:00,
2015-07-07 14:00:00,67.2,54.2,30.02,NE,46,0.0,0.0,63,0.00,,,0.11,Wunderground v.1.15,2015-07-07 19:00:00,
2015-07-07 14:10:00,67.5,53.6,30.02,North,5,0.0,0.0,61,0.00,,,0.11,Wunderground v.1.15,2015-07-07 19:10:00,
2015-07-07 14:15:00,67.7,54.2,30.02,ENE,58,0.0,0.0,62,0.00,,,0.11,Wunderground v.1.15,2015-07-07 19:15:00,
2015-07-07 14:25:00,68.0,54.0,30.01,NE,45,0.0,0.0,61,0.00,,,0.11,Wunderground v.1.15,2015-07-07 19:25:00,
2015-07-07 14:35:00,67.9,53.5,30.01,ENE,57,0.0,0.0,60,0.00,,,0.11,Wunderground v.1.15,2015-07-07 19:35:00,
2015-07-07 14:45:00,67.9,54.4,30.01,NNE,13,0.0,0.0,62,0.00,,,0.11,Wunderground v.1.15,2015-07-07 19:45:00,
2015-07-07 15:00:00,67.9,54.8,30.01,NNW,344,0.0,0.0,63,0.00,,,0.11,Wunderground v.1.15,2015-07-07 20:00:00,
2015-07-07 15:10:00,68.1,55.5,30.01,NE,45,0.0,0.0,64,0.00,,,0.11,Wunderground v.1.15,2015-07-07 20:10:00,
2015-07-07 15:20:00,68.2,55.6,30.01,NNE,24,0.0,0.0,64,0.00,,,0.11,Wunderground v.1.15,2015-07-07 20:20:00,
2015-07-07 15:25:00,68.2,54.7,30.01,NNW,347,0.0,0.0,62,0.00,,,0.11,Wunderground v.1.15,2015-07-07 20:25:00,
2015-07-07 15:35:00,68.2,54.2,30.01,ENE,57,0.0,0.0,61,0.00,,,0.11,Wunderground v.1.15,2015-07-07 20:35:00,
2015-07-07 15:40:00,68.3,54.8,30.01,NE,51,0.0,0.0,62,0.00,,,0.11,Wunderground v.1.15,2015-07-07 20:40:00,
2015-07-07 15:50:00,68.3,54.3,30.01,NW,325,0.0,0.0,61,0.00,,,0.11,Wunderground v.1.15,2015-07-07 20:50:00,
2015-07-07 15:55:00,68.2,54.2,30.01,NE,36,0.0,0.0,61,0.00,,,0.11,Wunderground v.1.15,2015-07-07 20:55:00,
2015-07-07 16:00:00,68.1,53.7,30.01,East,80,0.0,0.0,60,0.00,,,0.11,Wunderground v.1.15,2015-07-07 21:00:00,
2015-07-07 16:10:00,68.2,54.2,30.01,NNE,31,0.0,0.0,61,0.00,,,0.11,Wunderground v.1.15,2015-07-07 21:10:00,
2015-07-07 16:15:00,68.3,54.3,30.00,North,349,0.0,0.0,61,0.00,,,0.11,Wunderground v.1.15,2015-07-07 21:15:00,
2015-07-07 16:25:00,68.1,54.1,30.01,NE,51,0.0,0.0,61,0.00,,,0.11,Wunderground v.1.15,2015-07-07 21:25:00,
2015-07-07 16:35:00,67.7,53.8,30.00,NNE,13,0.0,0.0,61,0.00,,,0.11,Wunderground v.1.15,2015-07-07 21:35:00,
2015-07-07 16:40:00,67.6,54.1,30.00,NNE,27,0.0,0.0,62,0.00,,,0.11,Wunderground v.1.15,2015-07-07 21:40:00,
2015-07-07 16:50:00,67.3,54.3,30.00,NNE,22,0.0,0.0,63,0.00,,,0.11,Wunderground v.1.15,2015-07-07 21:50:00,
2015-07-07 17:00:00,67.1,54.1,30.00,NNE,26,0.0,0.0,63,0.00,,,0.11,Wunderground v.1.15,2015-07-07 22:00:00,
2015-07-07 17:10:00,67.1,54.5,30.01,NNE,21,0.0,0.0,64,0.00,,,0.11,Wunderground v.1.15,2015-07-07 22:10:00,
2015-07-07 17:15:00,67.1,55.4,30.00,NNE,17,0.0,0.0,66,0.00,,,0.11,Wunderground v.1.15,2015-07-07 22:15:00,
2015-07-07 17:25:00,67.0,54.8,30.00,NNE,18,0.0,0.0,65,0.00,,,0.11,Wunderground v.1.15,2015-07-07 22:25:00,
2015-07-07 17:30:00,67.0,54.4,30.00,NE,34,0.0,0.0,64,0.00,,,0.11,Wunderground v.1.15,2015-07-07 22:30:00,
2015-07-07 17:40:00,67.2,55.5,30.00,NE,35,0.0,0.0,66,0.00,,,0.11,Wunderground v.1.15,2015-07-07 22:40:00,
2015-07-07 17:45:00,67.2,55.5,30.00,NNE,32,0.0,0.0,66,0.00,,,0.11,Wunderground v.1.15,2015-07-07 22:45:00,
2015-07-07 17:55:00,67.4,55.6,30.00,NE,42,0.0,0.0,66,0.00,,,0.11,Wunderground v.1.15,2015-07-07 22:55:00,
2015-07-07 18:00:00,67.3,55.1,30.00,NE,42,0.0,0.0,65,0.00,,,0.11,Wunderground v.1.15,2015-07-07 23:00:00,
2015-07-07 18:10:00,67.3,54.7,30.00,NE,38,0.0,0.0,64,0.00,,,0.11,Wunderground v.1.15,2015-07-07 23:10:00,
2015-07-07 18:20:00,67.3,54.7,30.00,East,96,0.0,0.0,64,0.00,,,0.11,Wunderground v.1.15,2015-07-07 23:20:00,
2015-07-07 18:30:00,67.2,54.2,30.00,East,81,0.0,0.0,63,0.00,,,0.11,Wunderground v.1.15,2015-07-07 23:30:00,
2015-07-07 18:40:00,67.0,54.8,29.99,NE,47,0.0,0.0,65,0.00,,,0.11,Wunderground v.1.15,2015-07-07 23:40:00,
2015-07-07 18:50:00,66.7,54.6,29.99,NE,55,0.0,0.0,65,0.00,,,0.11,Wunderground v.1.15,2015-07-07 23:50:00,
2015-07-07 18:55:00,66.6,54.5,29.99,NE,49,0.0,0.0,65,0.00,,,0.11,Wunderground v.1.15,2015-07-07 23:55:00,
2015-07-07 19:00:00,66.5,54.8,29.99,NE,56,0.0,0.0,66,0.00,,,0.11,Wunderground v.1.15,2015-07-08 00:00:00,
2015-07-07 19:10:00,66.3,55.4,29.99,ENE,61,0.0,0.0,68,0.00,,,0.11,Wunderground v.1.15,2015-07-08 00:10:00,
2015-07-07 19:20:00,66.1,55.2,29.99,NE,52,0.0,0.0,68,0.00,,,0.11,Wunderground v.1.15,2015-07-08 00:20:00,
2015-07-07 19:30:00,65.8,55.3,29.99,NE,53,0.0,0.0,69,0.00,,,0.11,Wunderground v.1.15,2015-07-08 00:30:00,
2015-07-07 19:40:00,65.7,56.0,29.98,NE,53,0.0,0.0,71,0.00,,,0.11,Wunderground v.1.15,2015-07-08 00:40:00,
2015-07-07 19:45:00,65.6,55.9,29.98,NE,53,0.0,0.0,71,0.00,,,0.11,Wunderground v.1.15,2015-07-08 00:45:00,
2015-07-07 19:55:00,65.4,55.7,29.98,NE,51,0.0,0.0,71,0.00,,,0.11,Wunderground v.1.15,2015-07-08 00:55:00,
2015-07-07 20:01:00,65.4,56.1,29.98,NE,51,0.0,0.0,72,0.00,,,0.11,Wunderground v.1.15,2015-07-08 01:01:00,
2015-07-07 20:10:00,65.2,55.9,29.98,NE,46,0.0,0.0,72,0.00,,,0.11,Wunderground v.1.15,2015-07-08 01:10:00,
2015-07-07 20:30:00,64.9,56.4,29.98,ENE,57,0.0,0.0,74,0.00,,,0.11,Wunderground v.1.15,2015-07-08 01:30:00,
2015-07-07 20:40:00,64.7,56.6,29.98,ENE,57,0.0,0.0,75,0.00,,,0.11,Wunderground v.1.15,2015-07-08 01:40:00,
2015-07-07 20:50:00,64.5,56.8,29.99,ENE,57,0.0,0.0,76,0.00,,,0.11,Wunderground v.1.15,2015-07-08 01:50:00,
2015-07-07 21:00:00,64.2,57.2,29.99,ENE,57,0.0,0.0,78,0.00,,,0.11,Wunderground v.1.15,2015-07-08 02:00:00,
2015-07-07 21:10:00,64.0,57.4,29.99,ENE,57,0.0,0.0,79,0.00,,,0.11,Wunderground v.1.15,2015-07-08 02:10:00,
2015-07-07 21:15:00,63.8,57.5,29.99,ENE,57,0.0,0.0,80,0.00,,,0.11,Wunderground v.1.15,2015-07-08 02:15:00,
2015-07-07 21:25:00,63.4,57.5,29.99,ENE,57,0.0,0.0,81,0.00,,,0.11,Wunderground v.1.15,2015-07-08 02:25:00,
2015-07-07 21:30:00,63.3,57.7,29.99,ENE,57,0.0,0.0,82,0.00,,,0.11,Wunderground v.1.15,2015-07-08 02:30:00,
2015-07-07 21:40:00,63.0,58.1,30.00,ENE,57,0.0,0.0,84,0.00,,,0.12,Wunderground v.1.15,2015-07-08 02:40:00,
2015-07-07 21:45:00,62.9,58.0,30.00,ENE,57,0.0,0.0,84,0.00,,,0.12,Wunderground v.1.15,2015-07-08 02:45:00,
2015-07-07 21:55:00,62.7,58.1,30.00,NE,51,0.0,0.0,85,0.00,,,0.12,Wunderground v.1.15,2015-07-08 02:55:00,
2015-07-07 22:00:00,62.6,58.4,30.01,NE,51,0.0,0.0,86,0.00,,,0.13,Wunderground v.1.15,2015-07-08 03:00:00,
2015-07-07 22:10:00,62.4,58.5,30.01,NE,51,0.0,0.0,87,0.00,,,0.13,Wunderground v.1.15,2015-07-08 03:10:00,
2015-07-07 22:20:00,62.5,58.9,30.01,NE,51,0.0,0.0,88,0.04,,,0.14,Wunderground v.1.15,2015-07-08 03:20:00,
2015-07-07 22:25:00,62.4,58.8,30.01,NE,51,0.0,0.0,88,0.04,,,0.14,Wunderground v.1.15,2015-07-08 03:25:00,
2015-07-07 22:35:00,62.1,58.5,30.01,NE,51,0.0,0.0,88,0.00,,,0.15,Wunderground v.1.15,2015-07-08 03:35:00,
2015-07-07 22:40:00,62.0,58.4,30.01,NE,51,0.0,0.0,88,0.00,,,0.15,Wunderground v.1.15,2015-07-08 03:40:00,
2015-07-07 22:50:00,61.8,58.5,30.01,NE,51,0.0,0.0,89,0.00,,,0.15,Wunderground v.1.15,2015-07-08 03:50:00,
2015-07-07 22:55:00,61.8,58.5,30.01,NE,51,0.0,0.0,89,0.00,,,0.15,Wunderground v.1.15,2015-07-08 03:55:00,
2015-07-07 23:00:00,61.7,58.4,30.01,NE,51,0.0,0.0,89,0.00,,,0.15,Wunderground v.1.15,2015-07-08 04:00:00,
2015-07-07 23:10:00,61.4,58.4,30.02,NE,51,0.0,0.0,90,0.00,,,0.15,Wunderground v.1.15,2015-07-08 04:10:00,
2015-07-07 23:20:00,61.5,58.8,30.01,NE,51,0.0,0.0,91,0.00,,,0.15,Wunderground v.1.15,2015-07-08 04:20:00,
2015-07-07 23:25:00,61.5,58.8,30.01,NE,51,0.0,0.0,91,0.00,,,0.15,Wunderground v.1.15,2015-07-08 04:25:00,
2015-07-07 23:35:00,61.8,59.1,30.01,NE,51,0.0,0.0,91,0.00,,,0.15,Wunderground v.1.15,2015-07-08 04:35:00,
2015-07-07 23:40:00,61.9,59.2,30.01,NE,51,0.0,0.0,91,0.00,,,0.15,Wunderground v.1.15,2015-07-08 04:40:00,
2015-07-07 23:50:00,61.8,59.1,30.01,NE,51,0.0,0.0,91,0.00,,,0.15,Wunderground v.1.15,2015-07-08 04:50:00,